Dongfang Kantan No.1 — BFEJ — position and weather

sailwx.info

Track history (hours):
 
Tides and Currents Weather Stations Pressure Air Temp Water Temp Dewpoint Dewpoint Depression Visibility Wind Speed Wind Dir Waves Ship Positions

Dongfang Kantan No.1

Last reported at 2017-Sep-19 14:36 UTC. Time now 2017-Sep-22 22:29 UTC.
Position N 32°37' W 009°40'.

Length 62 m; draft 3.8 m.

Type: Ship. MMSI: 413300120.

Date/timePositionNaut miles runAvg speedWind from/ knotsBaromVisibWave heightAir tempDewpointWater temp
2017-Sep-19 14:36N 32°37' W 009°40'0 4.4
2017-Sep-19 14:29N 32°37' W 009°40'3 4.5
2017-Sep-19 13:43N 32°40' W 009°39'4 4.5
2017-Sep-19 12:53N 32°44' W 009°37'3 4.3
2017-Sep-19 12:09N 32°47' W 009°36'1 4.1
2017-Sep-19 12:00N 32°47' W 009°36'2 4.2
2017-Sep-19 11:30N 32°49' W 009°35'  
2017-Sep-15 11:34N 35°23' W 008°45'0 3.7
2017-Sep-15 11:26N 35°23' W 008°46'3 2.4
2017-Sep-15 10:01N 35°21' W 008°48'0 1.8
2017-Sep-15 09:58N 35°21' W 008°48'5 2.3
2017-Sep-15 07:39N 35°16' W 008°51'1 3.5
2017-Sep-15 07:24N 35°15' W 008°51'3 3.9
2017-Sep-15 06:35N 35°13' W 008°55'0 3.8
2017-Sep-15 06:30N 35°13' W 008°55'2 3.7
2017-Sep-15 06:00N 35°12' W 008°57'2 3.7
2017-Sep-15 05:30N 35°11' W 008°59'4 3.8
2017-Sep-15 04:32N 35°10' W 009°03'2 3.5
2017-Sep-15 04:05N 35°09' W 009°04'1 3.3
2017-Sep-15 03:52N 35°09' W 009°05'1 4.0
2017-Sep-15 03:30N 35°08' W 009°07'38 5.4
2017-Sep-14 20:29N 35°06' W 009°53'2 3.4
2017-Sep-14 19:59N 35°05' W 009°55'2 3.0
2017-Sep-14 19:27N 35°04' W 009°56'2 2.8
2017-Sep-14 18:50N 35°03' W 009°58'1 2.9
2017-Sep-14 18:28N 35°02' W 009°59'1 2.7
2017-Sep-14 18:00N 35°01' W 010°00'2 2.5
2017-Sep-14 17:19N 34°60' W 010°02'1 2.5
2017-Sep-14 17:00N 34°59' W 010°02'1 2.3
2017-Sep-14 16:30N 34°58' W 010°03'1 2.2
2017-Sep-14 16:00N 34°57' W 010°04'2 2.5
2017-Sep-14 15:23N 34°57' W 010°06'22 2.3
2017-Sep-14 05:38N 34°40' W 009°48'14 3.7
2017-Sep-14 01:41N 34°30' W 009°34'1 3.7
2017-Sep-14 01:30N 34°30' W 009°34'3 3.7
2017-Sep-14 00:40N 34°28' W 009°31'2 3.7
2017-Sep-14 00:12N 34°27' W 009°29'1 3.7
2017-Sep-13 23:59N 34°26' W 009°29'2 3.8
2017-Sep-13 23:30N 34°25' W 009°27'9 3.9
2017-Sep-13 21:11N 34°19' W 009°19'2 3.9
2017-Sep-13 20:42N 34°18' W 009°17'1 4.0
2017-Sep-13 20:30N 34°17' W 009°16'2 4.0
2017-Sep-13 19:59N 34°16' W 009°14'2 3.8
2017-Sep-13 19:30N 34°15' W 009°13'2 3.8
2017-Sep-13 19:00N 34°13' W 009°11'2 3.9
2017-Sep-13 18:27N 34°12' W 009°09'2 3.8
2017-Sep-13 18:00N 34°11' W 009°08'2 3.8
2017-Sep-13 17:30N 34°10' W 009°06'2 3.8
2017-Sep-13 16:52N 34°08' W 009°04'2 3.7
2017-Sep-13 16:27N 34°07' W 009°02'4 3.6
2017-Sep-13 15:22N 34°04' W 008°59'1 3.7
2017-Sep-13 15:00N 34°03' W 008°58'2 3.6
2017-Sep-13 14:30N 34°02' W 008°56'2 3.7
2017-Sep-13 13:59N 34°01' W 008°54'2 3.8
2017-Sep-13 13:30N 33°60' W 008°53'3 3.9
2017-Sep-13 12:42N 33°58' W 008°50'1 3.9
2017-Sep-13 12:30N 33°57' W 008°49'2 3.8
2017-Sep-13 11:51N 33°55' W 008°47'1 3.8
2017-Sep-13 11:30N 33°55' W 008°46'2 3.7
2017-Sep-13 11:00N 33°53' W 008°44'2 3.7
2017-Sep-13 10:30N 33°52' W 008°42'2 3.7
2017-Sep-13 10:00N 33°51' W 008°41'2 3.7
2017-Sep-13 09:30N 33°50' W 008°39'23 2.2
2017-Sep-12 23:20N 33°28' W 008°30'1 3.8
2017-Sep-12 23:00N 33°28' W 008°31'90 3.3
2017-Sep-11 19:16N 34°16' W 010°04'1 4.2
2017-Sep-11 18:58N 34°17' W 010°05'10 4.2
2017-Sep-11 16:34N 34°22' W 010°15'0 4.4
2017-Sep-11 16:30N 34°22' W 010°15'  
Track history (hours):
 
Tides and Currents Weather Stations Pressure Air Temp Water Temp Dewpoint Dewpoint Depression Visibility Wind Speed Wind Dir Waves Ship Positions

Dongfang Kantan No.1

Last reported at 2017-Sep-19 14:36 UTC. Time now 2017-Sep-22 22:29 UTC.
Position N 32°37' W 009°40'.

Length 62 m; draft 3.8 m.

Type: Ship. MMSI: 413300120.

Date/timePositionNaut miles runAvg speedWind from/ knotsBaromVisibWave heightAir tempDewpointWater temp
2017-Sep-19 14:36N 32°37' W 009°40'0 4.4
2017-Sep-19 14:29N 32°37' W 009°40'3 4.5
2017-Sep-19 13:43N 32°40' W 009°39'4 4.5
2017-Sep-19 12:53N 32°44' W 009°37'3 4.3
2017-Sep-19 12:09N 32°47' W 009°36'1 4.1
2017-Sep-19 12:00N 32°47' W 009°36'2 4.2
2017-Sep-19 11:30N 32°49' W 009°35'  
2017-Sep-15 11:34N 35°23' W 008°45'0 3.7
2017-Sep-15 11:26N 35°23' W 008°46'3 2.4
2017-Sep-15 10:01N 35°21' W 008°48'0 1.8
2017-Sep-15 09:58N 35°21' W 008°48'5 2.3
2017-Sep-15 07:39N 35°16' W 008°51'1 3.5
2017-Sep-15 07:24N 35°15' W 008°51'3 3.9
2017-Sep-15 06:35N 35°13' W 008°55'0 3.8
2017-Sep-15 06:30N 35°13' W 008°55'2 3.7
2017-Sep-15 06:00N 35°12' W 008°57'2 3.7
2017-Sep-15 05:30N 35°11' W 008°59'4 3.8
2017-Sep-15 04:32N 35°10' W 009°03'2 3.5
2017-Sep-15 04:05N 35°09' W 009°04'1 3.3
2017-Sep-15 03:52N 35°09' W 009°05'1 4.0
2017-Sep-15 03:30N 35°08' W 009°07'38 5.4
2017-Sep-14 20:29N 35°06' W 009°53'2 3.4
2017-Sep-14 19:59N 35°05' W 009°55'2 3.0
2017-Sep-14 19:27N 35°04' W 009°56'2 2.8
2017-Sep-14 18:50N 35°03' W 009°58'1 2.9
2017-Sep-14 18:28N 35°02' W 009°59'1 2.7
2017-Sep-14 18:00N 35°01' W 010°00'2 2.5
2017-Sep-14 17:19N 34°60' W 010°02'1 2.5
2017-Sep-14 17:00N 34°59' W 010°02'1 2.3
2017-Sep-14 16:30N 34°58' W 010°03'1 2.2
2017-Sep-14 16:00N 34°57' W 010°04'2 2.5
2017-Sep-14 15:23N 34°57' W 010°06'22 2.3
2017-Sep-14 05:38N 34°40' W 009°48'14 3.7
2017-Sep-14 01:41N 34°30' W 009°34'1 3.7
2017-Sep-14 01:30N 34°30' W 009°34'3 3.7
2017-Sep-14 00:40N 34°28' W 009°31'2 3.7
2017-Sep-14 00:12N 34°27' W 009°29'1 3.7
2017-Sep-13 23:59N 34°26' W 009°29'2 3.8
2017-Sep-13 23:30N 34°25' W 009°27'9 3.9
2017-Sep-13 21:11N 34°19' W 009°19'2 3.9
2017-Sep-13 20:42N 34°18' W 009°17'1 4.0
2017-Sep-13 20:30N 34°17' W 009°16'2 4.0
2017-Sep-13 19:59N 34°16' W 009°14'2 3.8
2017-Sep-13 19:30N 34°15' W 009°13'2 3.8
2017-Sep-13 19:00N 34°13' W 009°11'2 3.9
2017-Sep-13 18:27N 34°12' W 009°09'2 3.8
2017-Sep-13 18:00N 34°11' W 009°08'2 3.8
2017-Sep-13 17:30N 34°10' W 009°06'2 3.8
2017-Sep-13 16:52N 34°08' W 009°04'2 3.7
2017-Sep-13 16:27N 34°07' W 009°02'4 3.6
2017-Sep-13 15:22N 34°04' W 008°59'1 3.7
2017-Sep-13 15:00N 34°03' W 008°58'2 3.6
2017-Sep-13 14:30N 34°02' W 008°56'2 3.7
2017-Sep-13 13:59N 34°01' W 008°54'2 3.8
2017-Sep-13 13:30N 33°60' W 008°53'3 3.9
2017-Sep-13 12:42N 33°58' W 008°50'1 3.9
2017-Sep-13 12:30N 33°57' W 008°49'2 3.8
2017-Sep-13 11:51N 33°55' W 008°47'1 3.8
2017-Sep-13 11:30N 33°55' W 008°46'2 3.7
2017-Sep-13 11:00N 33°53' W 008°44'2 3.7
2017-Sep-13 10:30N 33°52' W 008°42'2 3.7
2017-Sep-13 10:00N 33°51' W 008°41'2 3.7
2017-Sep-13 09:30N 33°50' W 008°39'23 2.2
2017-Sep-12 23:20N 33°28' W 008°30'1 3.8
2017-Sep-12 23:00N 33°28' W 008°31'90 3.3
2017-Sep-11 19:16N 34°16' W 010°04'1 4.2
2017-Sep-11 18:58N 34°17' W 010°05'10 4.2
2017-Sep-11 16:34N 34°22' W 010°15'0 4.4
2017-Sep-11 16:30N 34°22' W 010°15'  

Dump ship's entire track history